Time;durP1;ratioP1;P1;durP2;ratioP2;P2;SDS_P1;SDS_P2;PMS_P1;PMS_P2;Temp;Humidity;BMP_temperature;BMP_pressure;BME280_temperature;BME280_humidity;BME280_pressure;Samples;Min_cycle;Max_cycle;Signal;HPM_P1;HPM_P2
2023/07/13 00:01:20;;;;;;;3.22;1.27;;;;;;;22.49;24.69;101083.97;5022777;28;20054;-77
2023/07/13 00:03:48;;;;;;;2.55;0.90;;;;;;;22.45;24.96;101079.88;5007097;28;20542;-77
2023/07/13 00:06:16;;;;;;;2.53;1.10;;;;;;;22.41;24.91;101086.94;5009105;28;20080;-77
2023/07/13 00:08:45;;;;;;;3.00;1.30;;;;;;;22.39;25.03;101089.06;5023838;28;20037;-77
2023/07/13 00:11:13;;;;;;;3.97;1.13;;;;;;;22.34;24.98;101077.69;5010533;28;20077;-77
2023/07/13 00:13:42;;;;;;;2.55;1.05;;;;;;;22.32;25.07;101086.25;5008491;28;20077;-77
2023/07/13 00:16:13;;;;;;;2.42;1.23;;;;;;;22.29;24.87;101089.44;5008466;28;20053;-77
2023/07/13 00:18:41;;;;;;;4.03;1.10;;;;;;;22.20;25.30;101079.53;5007422;28;20041;-77
2023/07/13 00:21:09;;;;;;;4.47;1.23;;;;;;;22.19;25.20;101083.38;5026095;28;20048;-78
2023/07/13 00:23:39;;;;;;;2.60;1.00;;;;;;;22.15;25.06;101085.72;5011368;28;20046;-77
2023/07/13 00:26:09;;;;;;;2.47;0.90;;;;;;;22.13;25.29;101087.00;5011322;28;20089;-78
2023/07/13 00:28:39;;;;;;;3.25;1.00;;;;;;;22.07;25.38;101083.09;5007480;28;20045;-77
2023/07/13 00:31:08;;;;;;;2.60;1.08;;;;;;;22.05;25.24;101088.00;5007514;28;20096;-77
2023/07/13 00:33:37;;;;;;;4.15;1.40;;;;;;;22.04;25.64;101091.00;5009837;28;20046;-77
2023/07/13 00:36:06;;;;;;;3.80;1.15;;;;;;;21.98;25.59;101086.25;5009794;28;20421;-77
2023/07/13 00:38:33;;;;;;;4.28;1.00;;;;;;;21.95;25.66;101086.66;4999634;28;20053;-77
2023/07/13 00:41:03;;;;;;;3.53;1.30;;;;;;;21.91;25.37;101085.34;5006647;28;20046;-78
2023/07/13 00:43:31;;;;;;;2.55;1.00;;;;;;;21.87;25.43;101082.94;5009594;28;20068;-78
2023/07/13 00:46:22;;;;;;;2.03;1.00;;;;;;;21.84;25.74;101088.06;5011796;28;20478;-77
2023/07/13 00:48:54;;;;;;;5.38;1.17;;;;;;;21.83;25.70;101086.34;5007187;28;20044;-77
2023/07/13 00:51:28;;;;;;;4.47;1.60;;;;;;;21.78;26.08;101086.06;5008802;28;20058;-77
2023/07/13 00:53:59;;;;;;;2.92;1.30;;;;;;;21.75;26.01;101090.13;5006575;28;20533;-78
2023/07/13 00:56:29;;;;;;;1.75;1.02;;;;;;;21.69;25.87;101087.28;5006852;28;20232;-78
2023/07/13 00:58:58;;;;;;;2.92;1.20;;;;;;;21.67;26.38;101084.72;5007702;28;20117;-77
2023/07/13 01:01:26;;;;;;;4.35;1.38;;;;;;;21.62;26.15;101078.88;5017977;28;20141;-78
2023/07/13 01:03:56;;;;;;;3.92;1.48;;;;;;;21.62;26.05;101092.78;5008932;28;20053;-78
2023/07/13 01:06:26;;;;;;;3.80;1.30;;;;;;;21.56;26.49;101084.38;5008630;28;20045;-77
2023/07/13 01:08:54;;;;;;;3.40;1.52;;;;;;;21.52;26.29;101087.56;5001437;28;20121;-77
2023/07/13 01:11:22;;;;;;;2.28;1.27;;;;;;;21.49;26.33;101079.63;5023475;28;20129;-78
2023/07/13 01:13:50;;;;;;;3.55;1.20;;;;;;;21.46;26.75;101079.16;5006518;28;20449;-77
2023/07/13 01:16:24;;;;;;;3.45;1.38;;;;;;;21.45;26.99;101081.06;5007037;28;20068;-76
2023/07/13 01:18:52;;;;;;;3.67;1.40;;;;;;;21.38;26.57;101088.53;5007085;28;20155;-77
2023/07/13 01:21:22;;;;;;;4.90;1.80;;;;;;;21.39;26.75;101081.03;5023800;28;20034;-77
2023/07/13 01:23:50;;;;;;;3.30;1.75;;;;;;;21.33;26.86;101077.13;5022758;28;20078;-76
2023/07/13 01:26:17;;;;;;;3.80;1.42;;;;;;;21.32;27.25;101082.91;5023078;28;20498;-77
2023/07/13 01:28:45;;;;;;;5.53;1.73;;;;;;;21.29;27.00;101086.94;5008552;28;20054;-77
2023/07/13 01:31:13;;;;;;;3.65;1.67;;;;;;;21.27;26.82;101086.28;5004511;28;20057;-77
2023/07/13 01:33:42;;;;;;;4.63;1.70;;;;;;;21.26;26.84;101069.78;5023626;28;20054;-76
2023/07/13 01:36:11;;;;;;;3.67;1.40;;;;;;;21.24;27.08;101071.84;5025802;28;20152;-77
2023/07/13 01:38:41;;;;;;;3.92;1.17;;;;;;;21.24;26.89;101077.44;5005834;28;20038;-77
2023/07/13 01:41:11;;;;;;;2.78;1.17;;;;;;;21.17;27.09;101082.94;5015644;28;20072;-76
2023/07/13 01:43:39;;;;;;;2.05;1.08;;;;;;;21.17;27.04;101090.41;5031457;28;20045;-75
2023/07/13 01:46:07;;;;;;;3.78;1.10;;;;;;;21.14;27.05;101083.31;5019929;28;20046;-76
2023/07/13 01:48:50;;;;;;;3.05;1.10;;;;;;;21.13;27.37;101089.94;5005409;28;20128;-76
2023/07/13 01:51:20;;;;;;;3.22;1.30;;;;;;;21.11;27.16;101101.25;5008135;28;20038;-76
2023/07/13 01:53:49;;;;;;;4.15;1.00;;;;;;;21.12;27.02;101091.84;5008007;28;20049;-75
2023/07/13 01:56:17;;;;;;;2.90;1.00;;;;;;;21.09;27.46;101083.94;5023055;28;20052;-77
2023/07/13 01:58:46;;;;;;;2.72;0.90;;;;;;;21.07;27.34;101088.81;5006531;28;20045;-77
2023/07/13 02:01:14;;;;;;;2.17;0.90;;;;;;;21.06;27.69;101092.66;5022622;28;20081;-76
2023/07/13 02:03:42;;;;;;;2.75;1.00;;;;;;;21.04;27.40;101085.56;5009352;28;20109;-77
2023/07/13 02:06:10;;;;;;;2.35;1.20;;;;;;;21.03;27.65;101089.41;5007812;28;20054;-77
2023/07/13 02:08:38;;;;;;;2.95;1.10;;;;;;;21.00;27.67;101081.47;5020858;28;20385;-75
2023/07/13 02:11:07;;;;;;;3.25;1.00;;;;;;;21.00;27.72;101084.25;5007554;28;20031;-77
2023/07/13 02:13:35;;;;;;;3.00;0.90;;;;;;;20.95;27.78;101090.38;5021064;28;20042;-77
2023/07/13 02:16:03;;;;;;;2.67;0.95;;;;;;;20.93;27.86;101088.88;5007822;28;20599;-77
2023/07/13 02:18:31;;;;;;;2.28;1.05;;;;;;;20.91;27.80;101088.22;5009079;28;20058;-76
2023/07/13 02:20:59;;;;;;;1.98;0.82;;;;;;;20.90;28.15;101086.47;5006665;28;20037;-76
2023/07/13 02:23:27;;;;;;;2.67;1.15;;;;;;;20.89;28.08;101091.19;5023682;28;20045;-77
2023/07/13 02:25:56;;;;;;;1.73;0.88;;;;;;;20.89;28.15;101101.44;5007590;28;20042;-77
2023/07/13 02:28:25;;;;;;;2.38;0.82;;;;;;;20.87;28.40;101092.44;5006525;28;20410;-76
2023/07/13 02:30:53;;;;;;;2.88;1.17;;;;;;;20.83;28.22;101105.88;5008754;28;20067;-76
2023/07/13 02:33:21;;;;;;;2.60;1.08;;;;;;;20.82;28.34;101103.28;5008124;28;20445;-76
2023/07/13 02:35:50;;;;;;;2.53;0.98;;;;;;;20.80;27.84;101103.47;5005564;28;20038;-77
2023/07/13 02:38:18;;;;;;;2.90;1.10;;;;;;;20.78;28.07;101100.03;5006152;28;20068;-76
2023/07/13 02:40:47;;;;;;;2.65;1.20;;;;;;;20.75;28.21;101095.75;5007239;28;20575;-77
2023/07/13 02:43:15;;;;;;;2.28;0.98;;;;;;;20.74;28.30;101104.28;5005147;28;20049;-76
2023/07/13 02:45:46;;;;;;;2.97;1.10;;;;;;;20.74;28.44;101102.34;5024951;28;20053;-77
2023/07/13 02:48:15;;;;;;;2.55;1.10;;;;;;;20.72;28.56;101101.69;5024410;28;20136;-76
2023/07/13 02:50:44;;;;;;;2.78;1.10;;;;;;;20.68;28.34;101103.16;5022842;28;20433;-76
2023/07/13 02:53:13;;;;;;;2.47;1.17;;;;;;;20.67;28.28;101106.13;5006006;28;20048;-77
2023/07/13 02:55:47;;;;;;;2.50;1.10;;;;;;;20.64;28.51;101107.34;5019934;28;20685;-77
2023/07/13 02:58:16;;;;;;;2.65;1.00;;;;;;;20.62;28.46;101105.81;5021362;28;20046;-75
2023/07/13 03:00:47;;;;;;;2.38;1.00;;;;;;;20.62;28.72;101114.16;5017568;28;20053;-76
2023/07/13 03:03:15;;;;;;;3.22;1.10;;;;;;;20.58;28.61;101112.81;5007888;28;20054;-75
2023/07/13 03:05:49;;;;;;;4.25;1.77;;;;;;;20.58;28.97;101112.81;5005857;28;20046;-75
2023/07/13 03:08:23;;;;;;;2.47;1.08;;;;;;;20.52;29.09;101103.34;5020705;28;20042;-77
2023/07/13 03:11:00;;;;;;;3.58;1.00;;;;;;;20.54;29.21;101103.13;5005650;28;20050;-76
2023/07/13 03:13:29;;;;;;;2.63;1.00;;;;;;;20.49;28.70;101112.06;5004124;28;20050;-76
2023/07/13 03:16:00;;;;;;;2.83;1.20;;;;;;;20.49;29.38;101109.28;5004308;28;20441;-76
2023/07/13 03:18:29;;;;;;;2.42;1.05;;;;;;;20.46;29.01;101119.91;5004837;28;20046;-76
2023/07/13 03:21:01;;;;;;;3.47;1.17;;;;;;;20.40;29.31;101116.84;5003330;28;20042;-76
2023/07/13 03:23:29;;;;;;;3.42;1.15;;;;;;;20.41;29.14;101117.72;5022126;28;20414;-76
2023/07/13 03:26:06;;;;;;;2.88;1.10;;;;;;;20.43;29.27;101114.75;5020256;28;20049;-76
2023/07/13 03:28:34;;;;;;;3.83;1.15;;;;;;;20.36;29.38;101118.31;5006094;28;20053;-76
2023/07/13 03:31:07;;;;;;;2.22;0.98;;;;;;;20.38;29.20;101120.88;5014315;28;20038;-77
2023/07/13 03:33:36;;;;;;;2.67;1.13;;;;;;;20.32;29.49;101122.50;5022695;28;20049;-77
2023/07/13 03:36:06;;;;;;;3.30;1.15;;;;;;;20.33;29.20;101120.59;5003877;28;20470;-75
2023/07/13 03:38:34;;;;;;;4.00;1.20;;;;;;;20.29;29.20;101122.88;5005222;28;20127;-76
2023/07/13 03:41:03;;;;;;;2.50;1.05;;;;;;;20.29;29.67;101127.56;5019275;28;20367;-77
2023/07/13 03:43:32;;;;;;;4.50;1.27;;;;;;;20.27;29.76;101127.78;5021291;28;20042;-77
2023/07/13 03:45:59;;;;;;;2.42;1.10;;;;;;;20.26;29.86;101128.84;5011320;28;20133;-77
2023/07/13 03:48:29;;;;;;;3.17;1.20;;;;;;;20.25;29.43;101131.81;5006695;28;20566;-76
2023/07/13 03:50:56;;;;;;;3.05;1.30;;;;;;;20.22;29.87;101129.41;5007961;28;20077;-77
2023/07/13 03:53:24;;;;;;;4.35;1.20;;;;;;;20.21;29.96;101138.78;5006803;28;20053;-77
2023/07/13 03:55:53;;;;;;;3.45;1.20;;;;;;;20.19;29.76;101135.34;5002116;28;20137;-77
2023/07/13 03:58:27;;;;;;;2.90;1.38;;;;;;;20.20;30.15;101143.47;5021091;28;20068;-77
2023/07/13 04:01:00;;;;;;;3.28;1.13;;;;;;;20.15;29.97;101150.66;5002088;28;20107;-77
2023/07/13 04:03:32;;;;;;;3.97;1.27;;;;;;;20.16;29.60;101152.41;5007645;28;20464;-77
2023/07/13 04:06:00;;;;;;;3.83;1.42;;;;;;;20.09;30.11;101155.09;5023971;28;20045;-77
2023/07/13 04:08:29;;;;;;;2.22;1.15;;;;;;;20.10;30.15;101162.38;5003584;28;20048;-77
2023/07/13 04:10:58;;;;;;;2.58;1.15;;;;;;;20.10;29.77;101164.28;5007116;28;20532;-78
2023/07/13 04:13:27;;;;;;;3.72;1.50;;;;;;;20.06;29.86;101161.00;5005486;28;20041;-78
2023/07/13 04:15:55;;;;;;;3.58;1.58;;;;;;;20.05;30.22;101159.28;5024111;28;20065;-78
2023/07/13 04:18:23;;;;;;;2.90;1.15;;;;;;;20.04;30.05;101165.06;5007372;28;20452;-78
2023/07/13 04:20:52;;;;;;;2.95;1.30;;;;;;;20.04;30.11;101165.06;5007272;28;20050;-77
2023/07/13 04:23:21;;;;;;;2.50;1.15;;;;;;;20.02;30.14;101168.00;5006173;28;20030;-77
2023/07/13 04:25:52;;;;;;;4.20;1.48;;;;;;;20.01;30.17;101166.28;5010893;28;20060;-78
2023/07/13 04:28:21;;;;;;;3.00;1.25;;;;;;;19.99;30.04;101165.59;5008487;28;20076;-78
2023/07/13 04:30:48;;;;;;;3.30;1.33;;;;;;;19.98;30.12;101169.44;5010882;28;20038;-76
2023/07/13 04:33:17;;;;;;;2.90;1.20;;;;;;;19.99;30.39;101176.72;5009132;28;20049;-77
2023/07/13 04:35:46;;;;;;;2.97;1.38;;;;;;;19.97;30.37;101181.59;5005641;28;20532;-78
2023/07/13 04:38:16;;;;;;;3.40;1.30;;;;;;;19.96;30.38;101175.16;5008492;28;20050;-77
2023/07/13 04:40:46;;;;;;;4.18;1.40;;;;;;;19.94;30.02;101170.88;5008899;28;20071;-75
2023/07/13 04:43:14;;;;;;;3.15;1.20;;;;;;;19.89;30.28;101171.38;5006474;28;20084;-76
2023/07/13 04:45:42;;;;;;;3.25;1.30;;;;;;;19.88;30.43;101177.13;5010359;28;20070;-79
2023/07/13 04:48:10;;;;;;;2.53;1.17;;;;;;;19.86;30.17;101171.78;5010483;28;20041;-78
2023/07/13 04:50:38;;;;;;;2.53;1.30;;;;;;;19.84;30.85;101171.09;5012048;28;20042;-78
2023/07/13 04:53:07;;;;;;;3.97;1.30;;;;;;;19.83;30.97;101174.91;5009651;28;20165;-76
2023/07/13 04:55:36;;;;;;;2.97;1.20;;;;;;;19.84;30.62;101179.44;5023022;28;20042;-77
2023/07/13 04:58:05;;;;;;;5.82;1.35;;;;;;;19.83;30.74;101174.06;5024265;28;20038;-77
2023/07/13 05:00:33;;;;;;;4.28;1.45;;;;;;;19.82;30.48;101173.19;5019611;28;20041;-77
2023/07/13 05:03:01;;;;;;;3.22;1.40;;;;;;;19.83;30.85;101176.84;5025349;28;20304;-77
2023/07/13 05:05:29;;;;;;;3.15;1.30;;;;;;;19.83;31.00;101188.81;5009187;28;20417;-78
2023/07/13 05:07:57;;;;;;;4.28;1.45;;;;;;;19.85;31.03;101185.84;5004001;28;20038;-78
2023/07/13 05:10:25;;;;;;;3.15;1.38;;;;;;;19.85;31.25;101186.72;5006322;28;20060;-76
2023/07/13 05:12:54;;;;;;;2.65;1.23;;;;;;;19.88;30.85;101185.44;5012759;28;20121;-76
2023/07/13 05:15:23;;;;;;;4.05;1.17;;;;;;;19.89;31.29;101190.81;5007404;28;20038;-76
2023/07/13 05:17:51;;;;;;;2.05;1.02;;;;;;;19.90;30.90;101188.91;5009915;28;20045;-78
2023/07/13 05:20:22;;;;;;;3.80;1.42;;;;;;;19.92;31.07;101189.63;5004566;28;20494;-76
2023/07/13 05:22:50;;;;;;;3.42;1.13;;;;;;;19.94;31.54;101193.09;5026931;28;20090;-76
2023/07/13 05:25:19;;;;;;;5.20;1.38;;;;;;;19.95;31.26;101195.66;5010127;28;20050;-76
2023/07/13 05:27:47;;;;;;;4.35;1.50;;;;;;;19.98;31.09;101198.06;5008652;28;20462;-77
2023/07/13 05:30:16;;;;;;;3.75;1.17;;;;;;;20.01;31.26;101200.47;5006997;28;20061;-77
2023/07/13 05:32:44;;;;;;;3.50;1.30;;;;;;;20.01;31.23;101189.38;5009027;28;20042;-76
2023/07/13 05:35:12;;;;;;;3.47;1.23;;;;;;;20.05;31.37;101198.19;5025536;28;20046;-77
2023/07/13 05:37:39;;;;;;;5.07;1.27;;;;;;;20.07;31.63;101204.41;5021211;28;20057;-76
2023/07/13 05:40:08;;;;;;;2.85;1.10;;;;;;;20.12;31.58;101210.25;5006509;28;20061;-77
2023/07/13 05:42:36;;;;;;;3.10;1.10;;;;;;;20.14;31.40;101213.72;5027451;28;20043;-77
2023/07/13 05:45:05;;;;;;;3.10;1.30;;;;;;;20.16;31.18;101222.75;5022214;28;20050;-77
2023/07/13 05:47:34;;;;;;;2.83;1.10;;;;;;;20.20;31.27;101220.47;5024112;28;20044;-77
2023/07/13 05:50:02;;;;;;;2.80;1.40;;;;;;;20.20;31.29;101221.28;5030448;28;20054;-78
2023/07/13 05:52:33;;;;;;;3.25;1.08;;;;;;;20.21;31.53;101216.59;5014136;28;20034;-77
2023/07/13 05:55:01;;;;;;;3.88;1.15;;;;;;;20.23;31.32;101220.06;5008590;28;20042;-78
2023/07/13 05:57:29;;;;;;;4.80;1.92;;;;;;;20.23;31.58;101225.63;5026585;28;20045;-74
2023/07/13 05:59:57;;;;;;;4.15;1.40;;;;;;;20.24;31.32;101221.78;5010209;28;20529;-78
2023/07/13 06:02:26;;;;;;;2.83;1.17;;;;;;;20.23;31.64;101226.50;5029896;28;20052;-76
2023/07/13 06:04:55;;;;;;;3.88;1.30;;;;;;;20.28;31.95;101225.94;5015542;28;20137;-75
2023/07/13 06:07:24;;;;;;;4.28;1.30;;;;;;;20.27;31.81;101224.22;5011452;28;20042;-75
2023/07/13 06:09:52;;;;;;;3.00;1.30;;;;;;;20.28;31.76;101232.34;5029466;28;20133;-75
2023/07/13 06:12:19;;;;;;;4.85;1.30;;;;;;;20.30;32.08;101232.16;5028324;28;20054;-77
2023/07/13 06:14:47;;;;;;;3.58;1.50;;;;;;;20.33;31.61;101237.34;5006831;28;20282;-76
2023/07/13 06:17:15;;;;;;;5.05;1.40;;;;;;;20.34;31.86;101239.94;5012316;28;20120;-76
2023/07/13 06:19:43;;;;;;;3.95;1.40;;;;;;;20.37;31.72;101250.66;5018414;28;20045;-76
2023/07/13 06:22:12;;;;;;;3.67;1.45;;;;;;;20.42;32.05;101247.31;5012707;28;20108;-76
2023/07/13 06:24:40;;;;;;;3.72;1.38;;;;;;;20.43;32.15;101239.84;5014881;28;20052;-75
2023/07/13 06:27:08;;;;;;;4.03;1.33;;;;;;;20.47;32.17;101243.97;5035316;28;20524;-75
2023/07/13 06:29:36;;;;;;;4.13;1.40;;;;;;;20.50;32.45;101246.38;5034646;28;20140;-76
2023/07/13 06:32:05;;;;;;;4.10;1.60;;;;;;;20.55;32.35;101255.84;5036198;28;20041;-76
2023/07/13 06:34:33;;;;;;;4.25;1.50;;;;;;;20.58;32.00;101252.72;5037519;28;20065;-75
2023/07/13 06:37:01;;;;;;;5.05;1.67;;;;;;;20.62;32.18;101248.50;5030075;28;20144;-77
2023/07/13 06:39:30;;;;;;;4.05;1.30;;;;;;;20.67;32.28;101253.50;5035462;28;20038;-75
2023/07/13 06:41:58;;;;;;;3.97;1.60;;;;;;;20.68;31.77;101258.91;5029573;28;20038;-78
2023/07/13 06:44:26;;;;;;;4.03;1.48;;;;;;;20.71;32.23;101261.28;5017578;28;20597;-78
2023/07/13 06:46:54;;;;;;;4.63;1.42;;;;;;;20.73;32.29;101264.72;5021412;28;20049;-78
2023/07/13 06:49:22;;;;;;;3.75;1.35;;;;;;;20.77;32.27;101259.66;5030629;28;20504;-78
2023/07/13 06:51:50;;;;;;;2.67;1.40;;;;;;;20.79;32.39;101263.09;5028442;28;20065;-75
2023/07/13 06:54:18;;;;;;;3.30;1.50;;;;;;;20.82;32.12;101270.19;5013841;28;20055;-76
2023/07/13 06:56:47;;;;;;;6.55;1.50;;;;;;;20.86;32.14;101269.63;5037464;28;20053;-75
2023/07/13 06:59:15;;;;;;;4.35;1.70;;;;;;;20.86;31.89;101275.19;5029739;28;20377;-75
2023/07/13 07:01:43;;;;;;;4.85;1.50;;;;;;;20.89;32.20;101274.81;5027745;28;20037;-78
2023/07/13 07:04:14;;;;;;;4.05;1.40;;;;;;;20.92;31.81;101279.13;5013043;28;20129;-78
2023/07/13 07:06:42;;;;;;;6.63;1.65;;;;;;;20.93;31.78;101281.72;5002852;28;20410;-79
2023/07/13 07:09:10;;;;;;;4.00;1.73;;;;;;;20.97;32.20;101284.97;5012668;28;20049;-80
2023/07/13 07:11:38;;;;;;;4.30;1.50;;;;;;;20.95;31.84;101282.38;5032219;28;20103;-78
2023/07/13 07:14:27;;;;;;;3.42;1.50;;;;;;;20.99;32.38;101292.09;5023072;28;20076;-86
2023/07/13 07:16:56;;;;;;;4.35;1.35;;;;;;;20.98;32.26;101283.91;5027962;28;20457;-85
2023/07/13 07:19:24;;;;;;;4.30;1.88;;;;;;;20.99;31.90;101282.88;5023127;28;20053;-84
2023/07/13 07:21:52;;;;;;;4.50;1.50;;;;;;;20.99;31.85;101289.28;5027218;28;20041;-84
2023/07/13 07:24:20;;;;;;;3.08;1.60;;;;;;;20.98;31.88;101284.78;5031660;28;20052;-84
2023/07/13 07:26:51;;;;;;;6.10;1.88;;;;;;;21.00;32.15;101288.25;5040055;28;20046;-84
2023/07/13 07:29:28;;;;;;;6.00;1.77;;;;;;;20.98;31.83;101287.56;5027725;28;20056;-83
2023/07/13 07:35:01;;;;;;;3.53;1.70;;;;;;;20.92;32.20;101293.03;5027973;28;20042;-82
2023/07/13 07:37:34;;;;;;;5.25;1.85;;;;;;;20.97;32.24;101298.88;5031186;28;20061;-82
2023/07/13 07:40:09;;;;;;;3.60;1.40;;;;;;;20.93;32.30;101298.41;5044266;28;20041;-82
2023/07/13 07:42:40;;;;;;;3.95;1.58;;;;;;;20.88;32.31;101281.41;5028703;28;20045;-84
2023/07/13 07:45:11;;;;;;;3.40;1.70;;;;;;;20.91;32.40;101294.97;5028090;28;20033;-83
2023/07/13 07:47:39;;;;;;;4.72;1.60;;;;;;;20.84;32.22;101288.44;5026145;28;20509;-83
2023/07/13 07:50:08;;;;;;;6.28;1.75;;;;;;;20.88;32.50;101280.56;5026190;28;20041;-83
2023/07/13 07:52:46;;;;;;;;;;;;;;;;;;;;;
2023/07/13 07:55:15;;;;;;;5.25;1.73;;;;;;;20.88;32.47;101297.25;5021395;28;20504;-83
2023/07/13 07:57:46;;;;;;;4.85;1.80;;;;;;;20.90;32.40;101286.81;5027686;28;20120;-83
2023/07/13 08:00:19;;;;;;;5.60;1.70;;;;;;;20.96;32.77;101294.38;5034542;28;20103;-83
2023/07/13 08:02:50;;;;;;;4.25;2.05;;;;;;;20.96;32.58;101291.59;5037178;28;20072;-83
2023/07/13 08:05:21;;;;;;;4.38;1.60;;;;;;;20.99;32.70;101283.72;5037756;28;20050;-83
2023/07/13 08:08:06;;;;;;;4.43;1.50;;;;;;;21.04;32.80;101294.28;5027410;28;20041;-83
2023/07/13 08:10:37;;;;;;;6.32;1.83;;;;;;;21.09;32.69;101292.66;5027200;28;20052;-83
2023/07/13 08:13:08;;;;;;;5.18;1.55;;;;;;;21.16;32.87;101298.31;5029247;28;20095;-84
2023/07/13 08:15:40;;;;;;;4.43;1.70;;;;;;;21.20;32.65;101290.41;5029591;28;20061;-83
2023/07/13 08:18:09;;;;;;;4.55;1.65;;;;;;;21.20;32.48;101294.06;5028848;28;20463;-83
2023/07/13 08:20:39;;;;;;;4.68;1.70;;;;;;;21.25;32.32;101282.38;5030553;28;20046;-83
2023/07/13 08:23:11;;;;;;;4.65;1.77;;;;;;;21.25;32.60;101287.94;5033087;28;20050;-83
2023/07/13 08:25:43;;;;;;;4.15;1.70;;;;;;;21.30;32.63;101283.53;5033333;28;20045;-83
2023/07/13 08:28:11;;;;;;;3.92;2.10;;;;;;;21.30;32.50;101277.09;5032754;28;20450;-83
2023/07/13 08:30:40;;;;;;;4.05;1.80;;;;;;;21.32;32.66;101270.28;5033050;28;20145;-83
2023/07/13 08:33:08;;;;;;;4.97;1.85;;;;;;;21.35;32.63;101282.97;5036017;28;20041;-84
2023/07/13 08:35:36;;;;;;;4.03;1.60;;;;;;;21.38;32.48;101279.78;5037162;28;20674;-83
2023/07/13 08:38:04;;;;;;;4.97;2.00;;;;;;;21.42;32.77;101282.00;5034996;28;20044;-83
2023/07/13 08:40:34;;;;;;;5.25;1.88;;;;;;;21.51;32.57;101280.81;5029678;28;20119;-83
2023/07/13 08:43:02;;;;;;;5.43;1.67;;;;;;;21.53;32.79;101275.88;5030417;28;20041;-83
2023/07/13 08:45:39;;;;;;;5.45;1.70;;;;;;;21.65;32.59;101278.16;5032491;28;20045;-83
2023/07/13 08:48:19;;;;;;;4.20;1.50;;;;;;;21.71;32.63;101274.59;5031637;28;20122;-83
2023/07/13 08:50:53;;;;;;;3.65;1.67;;;;;;;21.77;32.52;101282.13;5031356;28;20048;-82
2023/07/13 08:53:34;;;;;;;5.07;1.70;;;;;;;21.82;32.75;101268.50;5032667;28;20041;-84
2023/07/13 08:56:03;;;;;;;4.82;1.85;;;;;;;21.87;32.63;101271.53;5031695;28;20460;-83
2023/07/13 08:58:31;;;;;;;3.28;1.60;;;;;;;21.93;32.54;101273.59;5030806;28;20130;-83
2023/07/13 09:01:06;;;;;;;5.45;1.77;;;;;;;22.02;32.56;101280.72;5032241;28;20053;-82
2023/07/13 09:03:45;;;;;;;4.15;1.80;;;;;;;22.07;32.60;101269.84;5030641;28;20108;-83
2023/07/13 09:06:16;;;;;;;3.75;1.80;;;;;;;22.13;32.25;101269.03;5031730;28;20065;-83
2023/07/13 09:08:55;;;;;;;5.20;1.92;;;;;;;22.19;32.31;101278.53;5031737;28;20065;-83
2023/07/13 09:11:37;;;;;;;5.00;1.80;;;;;;;22.26;32.13;101280.31;5031337;28;20413;-84
2023/07/13 09:14:17;;;;;;;4.70;1.90;;;;;;;22.30;32.15;101282.69;5032230;28;20045;-83
2023/07/13 09:16:47;;;;;;;3.90;1.90;;;;;;;22.38;32.28;101285.34;5031746;28;20107;-84
2023/07/13 09:19:23;;;;;;;4.80;1.88;;;;;;;22.46;31.58;101282.41;5029997;28;20128;-84
2023/07/13 09:21:54;;;;;;;5.00;1.60;;;;;;;22.49;32.17;101284.81;5030714;28;20037;-84
2023/07/13 09:24:38;;;;;;;4.65;1.77;;;;;;;22.56;32.12;101281.03;5032574;28;20077;-83
2023/07/13 09:27:29;;;;;;;5.10;2.03;;;;;;;22.60;31.50;101287.91;5048675;28;20041;-83
2023/07/13 09:30:04;;;;;;;4.93;1.65;;;;;;;22.65;31.69;101281.75;5022881;28;20043;-84
2023/07/13 09:32:34;;;;;;;3.38;1.60;;;;;;;22.69;31.50;101284.97;5031664;28;20361;-84
2023/07/13 09:35:12;;;;;;;7.68;2.13;;;;;;;22.74;31.43;101290.81;5033070;28;20057;-84
2023/07/13 09:37:45;;;;;;;4.22;1.80;;;;;;;22.75;31.46;101298.13;5027725;28;20642;-83
2023/07/13 09:40:22;;;;;;;3.40;1.77;;;;;;;22.76;31.32;101294.22;5032487;28;20413;-83
2023/07/13 09:42:51;;;;;;;3.92;1.60;;;;;;;22.75;31.45;101295.34;5027581;28;20515;-82
2023/07/13 09:45:28;;;;;;;7.10;1.60;;;;;;;22.81;30.85;101297.28;5030439;28;20136;-82
2023/07/13 09:48:00;;;;;;;5.22;1.70;;;;;;;22.82;31.12;101291.50;5027263;28;20048;-81
2023/07/13 09:50:30;;;;;;;4.10;1.70;;;;;;;22.80;30.97;101299.22;5033796;28;20044;-82
2023/07/13 09:53:00;;;;;;;4.45;1.50;;;;;;;22.80;30.93;101296.44;5030474;28;20513;-82
2023/07/13 09:55:31;;;;;;;4.70;1.70;;;;;;;22.82;30.54;101307.41;5029727;28;20045;-83
2023/07/13 09:58:05;;;;;;;3.07;1.43;;;;;;;22.80;30.83;101299.22;5029558;28;20382;-82
2023/07/13 10:00:33;;;;;;;4.53;1.45;;;;;;;22.79;30.61;101308.66;5029052;28;20443;-81
2023/07/13 10:03:04;;;;;;;4.70;2.03;;;;;;;22.79;30.62;101300.28;5029961;28;20043;-81
2023/07/13 10:05:42;;;;;;;6.10;1.53;;;;;;;22.76;30.71;101300.69;5038968;28;20045;-81
2023/07/13 10:08:22;;;;;;;4.53;1.70;;;;;;;22.76;30.73;101294.22;5028655;28;20728;-82
2023/07/13 10:10:57;;;;;;;3.22;1.33;;;;;;;22.73;30.43;101309.47;5030418;28;20057;-82
2023/07/13 10:13:29;;;;;;;4.35;1.60;;;;;;;22.71;30.69;101310.75;5026716;28;20075;-82
2023/07/13 10:16:00;;;;;;;2.65;1.40;;;;;;;22.67;30.67;101306.66;5026054;28;20038;-81
2023/07/13 10:18:30;;;;;;;2.53;1.35;;;;;;;22.69;30.82;101304.50;5029996;28;20038;-83
2023/07/13 10:21:19;;;;;;;4.47;1.38;;;;;;;22.67;30.87;101301.94;5048235;28;20046;-80
2023/07/13 10:24:11;;;;;;;3.92;1.40;;;;;;;22.70;30.76;101304.28;5026456;28;20099;-81
2023/07/13 10:26:46;;;;;;;2.67;1.45;;;;;;;22.71;31.17;101296.78;5032331;28;20421;-82
2023/07/13 10:29:17;;;;;;;4.00;1.50;;;;;;;22.73;31.10;101305.81;5029785;28;20111;-83
2023/07/13 10:31:46;;;;;;;3.25;1.40;;;;;;;22.74;30.69;101305.63;5028157;28;20060;-82
2023/07/13 10:34:15;;;;;;;4.00;1.70;;;;;;;22.76;30.91;101316.56;5030495;28;20044;-83
2023/07/13 10:36:47;;;;;;;3.20;1.38;;;;;;;22.80;30.87;101309.53;5030545;28;20501;-82
2023/07/13 10:39:19;;;;;;;3.08;1.27;;;;;;;22.81;30.62;101316.84;5027902;28;20057;-82
2023/07/13 10:41:51;;;;;;;3.22;1.40;;;;;;;22.84;30.96;101314.47;5026787;28;20041;-83
2023/07/13 10:44:26;;;;;;;4.28;1.50;;;;;;;22.86;31.00;101314.28;5024189;28;20063;-83
2023/07/13 10:46:57;;;;;;;4.50;2.03;;;;;;;22.90;30.47;101310.03;5028223;28;20099;-82
2023/07/13 10:49:27;;;;;;;3.15;1.40;;;;;;;22.91;30.81;101303.38;5042180;28;20479;-83
2023/07/13 10:51:57;;;;;;;4.80;1.60;;;;;;;22.95;30.33;101311.13;5026783;28;20052;-82
2023/07/13 10:54:28;;;;;;;4.30;1.45;;;;;;;22.99;30.47;101314.38;5028718;28;20095;-82
2023/07/13 10:57:16;;;;;;;4.07;1.40;;;;;;;23.00;30.48;101325.31;5029744;28;20477;-82
2023/07/13 10:59:48;;;;;;;3.85;1.40;;;;;;;23.03;30.38;101315.69;5030747;28;20049;-85
2023/07/13 11:02:28;;;;;;;3.83;1.50;;;;;;;23.03;30.09;101315.69;5035747;28;20049;-83
2023/07/13 11:04:58;;;;;;;4.10;1.30;;;;;;;23.04;30.31;101306.25;5062365;28;20049;-82
2023/07/13 11:07:31;;;;;;;3.97;1.40;;;;;;;23.08;30.19;101309.50;5039173;28;20049;-83
2023/07/13 11:10:04;;;;;;;3.30;1.45;;;;;;;23.07;30.19;101314.22;5031463;28;20061;-83
2023/07/13 11:12:55;;;;;;;2.85;1.40;;;;;;;23.07;30.08;101318.94;5037766;28;20532;-82
2023/07/13 11:15:45;;;;;;;3.25;1.20;;;;;;;23.09;29.85;101317.63;5043680;28;20049;-83
2023/07/13 11:18:22;;;;;;;3.30;1.73;;;;;;;23.11;29.78;101320.22;5044407;28;20456;-83
2023/07/13 11:20:51;;;;;;;3.28;1.45;;;;;;;23.07;30.02;101307.78;5025211;28;20435;-83
2023/07/13 11:23:30;;;;;;;2.80;1.30;;;;;;;23.10;29.80;101311.00;5027728;28;20065;-83
2023/07/13 11:26:32;;;;;;;3.65;1.40;;;;;;;23.07;29.73;101307.78;5042729;28;20052;-83
2023/07/13 11:29:27;;;;;;;4.50;1.40;;;;;;;23.08;29.91;101304.78;5016326;28;20052;-83
2023/07/13 11:31:57;;;;;;;3.03;1.48;;;;;;;23.09;30.17;101306.47;5014564;28;20041;-82
2023/07/13 11:34:31;;;;;;;2.97;1.35;;;;;;;23.11;29.85;101309.94;5010015;28;20034;-83
2023/07/13 11:37:03;;;;;;;3.92;1.48;;;;;;;23.11;29.88;101300.69;4995733;28;20416;-83
2023/07/13 11:39:42;;;;;;;2.97;1.40;;;;;;;23.17;29.87;101297.09;4998841;28;20065;-83
2023/07/13 11:42:16;;;;;;;2.08;1.25;;;;;;;23.21;29.86;101301.22;5009409;28;20045;-83
2023/07/13 11:44:51;;;;;;;3.05;1.60;;;;;;;23.28;29.71;101300.16;5006357;28;20525;-83
2023/07/13 11:47:41;;;;;;;4.10;1.17;;;;;;;23.31;29.53;101302.56;5007431;28;20108;-83